sensor_id;sensor_type;location;lat;lon;timestamp;temperature;humidity
37052;DHT22;22964;52.272;13.356;2022-11-15T00:02:06;10.00;76.90
37052;DHT22;22964;52.272;13.356;2022-11-15T00:04:50;10.00;77.40
37052;DHT22;22964;52.272;13.356;2022-11-15T00:07:34;10.00;77.90
37052;DHT22;22964;52.272;13.356;2022-11-15T00:10:18;10.00;78.10
37052;DHT22;22964;52.272;13.356;2022-11-15T00:13:10;10.00;78.20
37052;DHT22;22964;52.272;13.356;2022-11-15T00:15:59;10.00;78.60
37052;DHT22;22964;52.272;13.356;2022-11-15T00:18:44;10.00;79.70
37052;DHT22;22964;52.272;13.356;2022-11-15T00:21:28;10.10;79.10
37052;DHT22;22964;52.272;13.356;2022-11-15T00:24:12;10.10;79.30
37052;DHT22;22964;52.272;13.356;2022-11-15T00:26:56;10.10;79.60
37052;DHT22;22964;52.272;13.356;2022-11-15T00:29:40;10.10;79.80
37052;DHT22;22964;52.272;13.356;2022-11-15T00:32:31;10.20;80.30
37052;DHT22;22964;52.272;13.356;2022-11-15T00:35:16;10.30;80.50
37052;DHT22;22964;52.272;13.356;2022-11-15T00:38:01;10.30;80.30
37052;DHT22;22964;52.272;13.356;2022-11-15T00:40:45;10.40;80.20
37052;DHT22;22964;52.272;13.356;2022-11-15T00:43:29;10.40;80.10
37052;DHT22;22964;52.272;13.356;2022-11-15T00:46:13;10.50;80.00
37052;DHT22;22964;52.272;13.356;2022-11-15T00:48:58;10.50;79.80
37052;DHT22;22964;52.272;13.356;2022-11-15T00:51:43;10.50;79.50
37052;DHT22;22964;52.272;13.356;2022-11-15T00:54:27;10.50;79.20
37052;DHT22;22964;52.272;13.356;2022-11-15T00:57:11;10.60;79.00
37052;DHT22;22964;52.272;13.356;2022-11-15T00:59:55;10.60;78.60
37052;DHT22;22964;52.272;13.356;2022-11-15T01:02:39;10.60;78.60
37052;DHT22;22964;52.272;13.356;2022-11-15T01:05:23;10.60;78.50
37052;DHT22;22964;52.272;13.356;2022-11-15T01:08:12;10.60;78.30
37052;DHT22;22964;52.272;13.356;2022-11-15T01:11:05;10.60;78.60
37052;DHT22;22964;52.272;13.356;2022-11-15T01:13:49;10.60;78.70
37052;DHT22;22964;52.272;13.356;2022-11-15T01:16:33;10.60;78.70
37052;DHT22;22964;52.272;13.356;2022-11-15T01:19:17;10.60;78.60
37052;DHT22;22964;52.272;13.356;2022-11-15T01:22:01;10.60;78.50
37052;DHT22;22964;52.272;13.356;2022-11-15T01:24:46;10.60;78.40
37052;DHT22;22964;52.272;13.356;2022-11-15T01:27:29;10.60;78.20
37052;DHT22;22964;52.272;13.356;2022-11-15T01:30:14;10.60;78.10
37052;DHT22;22964;52.272;13.356;2022-11-15T01:32:58;10.60;78.10
37052;DHT22;22964;52.272;13.356;2022-11-15T01:35:42;10.60;78.10
37052;DHT22;22964;52.272;13.356;2022-11-15T01:38:26;10.60;78.10
37052;DHT22;22964;52.272;13.356;2022-11-15T01:41:20;10.60;78.00
37052;DHT22;22964;52.272;13.356;2022-11-15T01:47:29;10.60;77.90
37052;DHT22;22964;52.272;13.356;2022-11-15T01:50:18;10.60;77.60
37052;DHT22;22964;52.272;13.356;2022-11-15T01:53:05;10.60;77.50
37052;DHT22;22964;52.272;13.356;2022-11-15T01:55:49;10.60;77.60
37052;DHT22;22964;52.272;13.356;2022-11-15T01:58:34;10.60;77.90
37052;DHT22;22964;52.272;13.356;2022-11-15T02:01:19;10.50;78.00
37052;DHT22;22964;52.272;13.356;2022-11-15T02:04:19;10.50;78.10
37052;DHT22;22964;52.272;13.356;2022-11-15T02:07:06;10.50;78.20
37052;DHT22;22964;52.272;13.356;2022-11-15T02:09:52;10.50;78.90
37052;DHT22;22964;52.272;13.356;2022-11-15T02:12:38;10.50;78.00
37052;DHT22;22964;52.272;13.356;2022-11-15T02:15:28;10.60;78.00
37052;DHT22;22964;52.272;13.356;2022-11-15T02:18:23;10.50;77.80
37052;DHT22;22964;52.272;13.356;2022-11-15T02:32:42;10.50;77.10
37052;DHT22;22964;52.272;13.356;2022-11-15T02:35:39;10.50;77.10
37052;DHT22;22964;52.272;13.356;2022-11-15T02:42:26;10.40;77.20
37052;DHT22;22964;52.272;13.356;2022-11-15T02:45:33;10.40;77.20
37052;DHT22;22964;52.272;13.356;2022-11-15T02:48:20;10.40;77.10
37052;DHT22;22964;52.272;13.356;2022-11-15T02:51:05;10.40;77.20
37052;DHT22;22964;52.272;13.356;2022-11-15T02:53:50;10.30;77.20
37052;DHT22;22964;52.272;13.356;2022-11-15T02:56:34;10.30;77.20
37052;DHT22;22964;52.272;13.356;2022-11-15T03:05:37;10.30;77.50
37052;DHT22;22964;52.272;13.356;2022-11-15T03:08:47;10.30;77.30
37052;DHT22;22964;52.272;13.356;2022-11-15T03:11:41;10.30;77.20
37052;DHT22;22964;52.272;13.356;2022-11-15T03:14:40;10.30;77.10
37052;DHT22;22964;52.272;13.356;2022-11-15T03:17:54;10.30;77.00
37052;DHT22;22964;52.272;13.356;2022-11-15T03:20:40;10.20;76.90
37052;DHT22;22964;52.272;13.356;2022-11-15T03:23:26;10.20;77.70
37052;DHT22;22964;52.272;13.356;2022-11-15T03:26:13;10.20;76.80
37052;DHT22;22964;52.272;13.356;2022-11-15T03:29:06;10.20;76.70
37052;DHT22;22964;52.272;13.356;2022-11-15T03:31:57;10.20;76.60
37052;DHT22;22964;52.272;13.356;2022-11-15T03:35:02;10.20;76.50
37052;DHT22;22964;52.272;13.356;2022-11-15T03:40:47;10.10;76.30
37052;DHT22;22964;52.272;13.356;2022-11-15T03:43:39;10.10;76.10
37052;DHT22;22964;52.272;13.356;2022-11-15T03:46:38;10.10;76.10
37052;DHT22;22964;52.272;13.356;2022-11-15T03:49:33;10.00;75.70
37052;DHT22;22964;52.272;13.356;2022-11-15T03:52:19;10.00;75.50
37052;DHT22;22964;52.272;13.356;2022-11-15T03:55:07;9.90;75.40
37052;DHT22;22964;52.272;13.356;2022-11-15T03:57:55;9.90;75.30
37052;DHT22;22964;52.272;13.356;2022-11-15T04:00:41;9.90;76.20
37052;DHT22;22964;52.272;13.356;2022-11-15T04:03:26;9.80;75.40
37052;DHT22;22964;52.272;13.356;2022-11-15T04:06:11;9.70;75.50
37052;DHT22;22964;52.272;13.356;2022-11-15T04:08:55;9.70;75.60
37052;DHT22;22964;52.272;13.356;2022-11-15T04:11:39;9.70;75.80
37052;DHT22;22964;52.272;13.356;2022-11-15T04:14:23;9.60;76.10
37052;DHT22;22964;52.272;13.356;2022-11-15T04:17:07;9.60;76.60
37052;DHT22;22964;52.272;13.356;2022-11-15T04:19:51;9.60;77.00
37052;DHT22;22964;52.272;13.356;2022-11-15T04:22:56;9.60;77.20
37052;DHT22;22964;52.272;13.356;2022-11-15T04:26:02;9.60;77.40
37052;DHT22;22964;52.272;13.356;2022-11-15T04:28:47;9.70;77.50
37052;DHT22;22964;52.272;13.356;2022-11-15T04:31:52;9.70;77.30
37052;DHT22;22964;52.272;13.356;2022-11-15T04:34:36;9.60;76.70
37052;DHT22;22964;52.272;13.356;2022-11-15T04:37:22;9.60;76.10
37052;DHT22;22964;52.272;13.356;2022-11-15T04:40:07;9.50;75.60
37052;DHT22;22964;52.272;13.356;2022-11-15T04:42:51;9.50;75.40
37052;DHT22;22964;52.272;13.356;2022-11-15T04:45:36;9.40;75.30
37052;DHT22;22964;52.272;13.356;2022-11-15T04:48:20;9.40;75.50
37052;DHT22;22964;52.272;13.356;2022-11-15T04:51:04;9.30;75.60
37052;DHT22;22964;52.272;13.356;2022-11-15T04:53:49;9.30;75.60
37052;DHT22;22964;52.272;13.356;2022-11-15T04:56:33;9.20;75.70
37052;DHT22;22964;52.272;13.356;2022-11-15T04:59:17;9.20;75.60
37052;DHT22;22964;52.272;13.356;2022-11-15T05:02:01;9.20;75.60
37052;DHT22;22964;52.272;13.356;2022-11-15T05:04:46;9.10;75.40
37052;DHT22;22964;52.272;13.356;2022-11-15T05:07:30;9.10;75.50
37052;DHT22;22964;52.272;13.356;2022-11-15T05:10:14;9.10;75.50
37052;DHT22;22964;52.272;13.356;2022-11-15T05:12:59;9.00;75.70
37052;DHT22;22964;52.272;13.356;2022-11-15T05:15:43;9.00;76.00
37052;DHT22;22964;52.272;13.356;2022-11-15T05:18:27;9.00;76.10
37052;DHT22;22964;52.272;13.356;2022-11-15T05:21:14;9.00;76.20
37052;DHT22;22964;52.272;13.356;2022-11-15T05:23:59;9.00;76.20
37052;DHT22;22964;52.272;13.356;2022-11-15T05:26:43;9.00;76.30
37052;DHT22;22964;52.272;13.356;2022-11-15T05:29:27;8.90;76.70
37052;DHT22;22964;52.272;13.356;2022-11-15T05:32:12;8.90;77.00
37052;DHT22;22964;52.272;13.356;2022-11-15T05:34:57;8.90;77.20
37052;DHT22;22964;52.272;13.356;2022-11-15T05:37:41;9.00;76.80
37052;DHT22;22964;52.272;13.356;2022-11-15T05:40:26;9.00;76.70
37052;DHT22;22964;52.272;13.356;2022-11-15T05:43:11;9.00;76.80
37052;DHT22;22964;52.272;13.356;2022-11-15T05:45:57;8.90;76.90
37052;DHT22;22964;52.272;13.356;2022-11-15T05:48:45;9.00;77.20
37052;DHT22;22964;52.272;13.356;2022-11-15T05:51:30;9.00;77.30
37052;DHT22;22964;52.272;13.356;2022-11-15T05:54:15;9.00;77.30
37052;DHT22;22964;52.272;13.356;2022-11-15T05:57:04;9.10;77.40
37052;DHT22;22964;52.272;13.356;2022-11-15T05:59:51;9.10;77.10
37052;DHT22;22964;52.272;13.356;2022-11-15T06:02:36;9.10;76.30
37052;DHT22;22964;52.272;13.356;2022-11-15T06:05:20;9.10;76.00
37052;DHT22;22964;52.272;13.356;2022-11-15T06:08:04;9.10;75.80
37052;DHT22;22964;52.272;13.356;2022-11-15T06:10:48;9.10;76.00
37052;DHT22;22964;52.272;13.356;2022-11-15T06:13:33;9.10;76.00
37052;DHT22;22964;52.272;13.356;2022-11-15T06:16:17;9.10;75.50
37052;DHT22;22964;52.272;13.356;2022-11-15T06:19:02;9.00;75.00
37052;DHT22;22964;52.272;13.356;2022-11-15T06:21:46;9.00;74.80
37052;DHT22;22964;52.272;13.356;2022-11-15T06:24:30;8.90;74.60
37052;DHT22;22964;52.272;13.356;2022-11-15T06:27:14;8.80;74.60
37052;DHT22;22964;52.272;13.356;2022-11-15T06:29:58;8.70;74.90
37052;DHT22;22964;52.272;13.356;2022-11-15T06:32:42;8.70;75.10
37052;DHT22;22964;52.272;13.356;2022-11-15T06:35:27;8.70;75.30
37052;DHT22;22964;52.272;13.356;2022-11-15T06:38:12;8.60;75.30
37052;DHT22;22964;52.272;13.356;2022-11-15T06:41:02;8.60;75.50
37052;DHT22;22964;52.272;13.356;2022-11-15T06:43:46;8.50;75.60
37052;DHT22;22964;52.272;13.356;2022-11-15T06:46:31;8.50;75.90
37052;DHT22;22964;52.272;13.356;2022-11-15T06:49:15;8.50;76.20
37052;DHT22;22964;52.272;13.356;2022-11-15T06:52:00;8.50;76.60
37052;DHT22;22964;52.272;13.356;2022-11-15T06:54:45;8.50;76.90
37052;DHT22;22964;52.272;13.356;2022-11-15T06:57:29;8.60;77.30
37052;DHT22;22964;52.272;13.356;2022-11-15T07:00:14;8.60;77.50
37052;DHT22;22964;52.272;13.356;2022-11-15T07:03:02;8.60;77.40
37052;DHT22;22964;52.272;13.356;2022-11-15T07:05:56;8.60;77.00
37052;DHT22;22964;52.272;13.356;2022-11-15T07:08:41;8.60;76.60
37052;DHT22;22964;52.272;13.356;2022-11-15T07:11:25;8.70;76.80
37052;DHT22;22964;52.272;13.356;2022-11-15T07:14:09;8.60;77.00
37052;DHT22;22964;52.272;13.356;2022-11-15T07:16:53;8.70;77.20
37052;DHT22;22964;52.272;13.356;2022-11-15T07:19:37;8.70;77.40
37052;DHT22;22964;52.272;13.356;2022-11-15T07:22:21;8.70;77.60
37052;DHT22;22964;52.272;13.356;2022-11-15T07:25:06;8.70;77.70
37052;DHT22;22964;52.272;13.356;2022-11-15T07:27:58;8.70;77.90
37052;DHT22;22964;52.272;13.356;2022-11-15T07:30:42;8.70;78.30
37052;DHT22;22964;52.272;13.356;2022-11-15T07:33:26;8.80;78.40
37052;DHT22;22964;52.272;13.356;2022-11-15T07:36:10;8.90;78.70
37052;DHT22;22964;52.272;13.356;2022-11-15T07:38:54;8.90;79.80
37052;DHT22;22964;52.272;13.356;2022-11-15T07:41:39;9.00;79.10
37052;DHT22;22964;52.272;13.356;2022-11-15T07:44:23;9.00;79.30
37052;DHT22;22964;52.272;13.356;2022-11-15T07:47:07;9.10;79.50
37052;DHT22;22964;52.272;13.356;2022-11-15T07:49:51;9.10;80.70
37052;DHT22;22964;52.272;13.356;2022-11-15T07:52:36;9.20;80.20
37052;DHT22;22964;52.272;13.356;2022-11-15T07:55:21;9.30;80.50
37052;DHT22;22964;52.272;13.356;2022-11-15T07:58:09;9.40;80.70
37052;DHT22;22964;52.272;13.356;2022-11-15T08:00:53;9.50;81.00
37052;DHT22;22964;52.272;13.356;2022-11-15T08:03:37;9.60;81.30
37052;DHT22;22964;52.272;13.356;2022-11-15T08:06:21;9.70;81.40
37052;DHT22;22964;52.272;13.356;2022-11-15T08:09:05;9.80;81.30
37052;DHT22;22964;52.272;13.356;2022-11-15T08:11:49;9.90;81.30
37052;DHT22;22964;52.272;13.356;2022-11-15T08:14:35;9.90;81.00
37052;DHT22;22964;52.272;13.356;2022-11-15T08:17:19;10.00;80.90
37052;DHT22;22964;52.272;13.356;2022-11-15T08:20:03;10.10;80.80
37052;DHT22;22964;52.272;13.356;2022-11-15T08:22:48;10.10;81.00
37052;DHT22;22964;52.272;13.356;2022-11-15T08:25:34;10.20;81.10
37052;DHT22;22964;52.272;13.356;2022-11-15T08:28:19;10.30;81.40
37052;DHT22;22964;52.272;13.356;2022-11-15T08:31:03;10.40;81.80
37052;DHT22;22964;52.272;13.356;2022-11-15T08:33:48;10.50;82.10
37052;DHT22;22964;52.272;13.356;2022-11-15T08:36:32;10.50;82.30
37052;DHT22;22964;52.272;13.356;2022-11-15T08:39:16;10.60;82.40
37052;DHT22;22964;52.272;13.356;2022-11-15T08:42:00;10.70;82.50
37052;DHT22;22964;52.272;13.356;2022-11-15T08:44:45;10.70;82.60
37052;DHT22;22964;52.272;13.356;2022-11-15T08:47:29;10.80;82.60
37052;DHT22;22964;52.272;13.356;2022-11-15T08:50:14;10.90;82.60
37052;DHT22;22964;52.272;13.356;2022-11-15T08:53:05;11.00;82.60
37052;DHT22;22964;52.272;13.356;2022-11-15T08:55:49;11.10;82.70
37052;DHT22;22964;52.272;13.356;2022-11-15T08:58:33;11.10;82.50
37052;DHT22;22964;52.272;13.356;2022-11-15T09:01:19;11.20;82.60
37052;DHT22;22964;52.272;13.356;2022-11-15T09:04:04;11.30;82.70
37052;DHT22;22964;52.272;13.356;2022-11-15T09:06:48;11.40;82.60
37052;DHT22;22964;52.272;13.356;2022-11-15T09:09:32;11.50;82.60
37052;DHT22;22964;52.272;13.356;2022-11-15T09:12:16;11.60;83.40
37052;DHT22;22964;52.272;13.356;2022-11-15T09:15:01;11.70;82.60
37052;DHT22;22964;52.272;13.356;2022-11-15T09:17:45;11.80;82.60
37052;DHT22;22964;52.272;13.356;2022-11-15T09:20:29;11.90;82.50
37052;DHT22;22964;52.272;13.356;2022-11-15T09:23:13;12.00;82.40
37052;DHT22;22964;52.272;13.356;2022-11-15T09:26:01;12.10;82.20
37052;DHT22;22964;52.272;13.356;2022-11-15T09:28:46;12.20;82.00
37052;DHT22;22964;52.272;13.356;2022-11-15T09:31:31;12.30;81.80
37052;DHT22;22964;52.272;13.356;2022-11-15T09:34:15;12.40;81.70
37052;DHT22;22964;52.272;13.356;2022-11-15T09:36:59;12.50;81.60
37052;DHT22;22964;52.272;13.356;2022-11-15T09:39:43;12.70;81.90
37052;DHT22;22964;52.272;13.356;2022-11-15T09:51:33;13.30;81.90
37052;DHT22;22964;52.272;13.356;2022-11-15T09:54:04;13.40;81.70
37052;DHT22;22964;52.272;13.356;2022-11-15T09:56:32;13.50;81.50
37052;DHT22;22964;52.272;13.356;2022-11-15T10:01:46;13.80;81.20
37052;DHT22;22964;52.272;13.356;2022-11-15T10:04:14;14.00;80.90
37052;DHT22;22964;52.272;13.356;2022-11-15T10:06:54;14.10;80.50
37052;DHT22;22964;52.272;13.356;2022-11-15T10:09:29;14.20;79.70
37052;DHT22;22964;52.272;13.356;2022-11-15T10:11:57;14.30;79.70
37052;DHT22;22964;52.272;13.356;2022-11-15T10:14:25;14.50;79.90
37052;DHT22;22964;52.272;13.356;2022-11-15T10:17:09;14.60;79.70
37052;DHT22;22964;52.272;13.356;2022-11-15T10:20:26;14.70;79.00
37052;DHT22;22964;52.272;13.356;2022-11-15T10:22:50;14.80;79.00
37052;DHT22;22964;52.272;13.356;2022-11-15T10:25:32;15.00;78.30
37052;DHT22;22964;52.272;13.356;2022-11-15T10:30:38;15.20;78.10
37052;DHT22;22964;52.272;13.356;2022-11-15T10:44:18;15.80;76.80
37052;DHT22;22964;52.272;13.356;2022-11-15T10:47:05;16.00;75.60
37052;DHT22;22964;52.272;13.356;2022-11-15T10:49:32;16.10;76.00
37052;DHT22;22964;52.272;13.356;2022-11-15T10:54:42;16.30;75.50
37052;DHT22;22964;52.272;13.356;2022-11-15T10:57:17;16.40;74.70
37052;DHT22;22964;52.272;13.356;2022-11-15T10:59:59;16.50;74.10
37052;DHT22;22964;52.272;13.356;2022-11-15T11:02:30;16.60;73.90
37052;DHT22;22964;52.272;13.356;2022-11-15T11:04:56;16.70;74.50
37052;DHT22;22964;52.272;13.356;2022-11-15T11:07:28;16.80;74.10
37052;DHT22;22964;52.272;13.356;2022-11-15T11:10:00;16.90;73.10
37052;DHT22;22964;52.272;13.356;2022-11-15T11:12:30;17.00;73.30
37052;DHT22;22964;52.272;13.356;2022-11-15T11:15:09;17.10;73.20
37052;DHT22;22964;52.272;13.356;2022-11-15T11:20:25;17.40;72.60
37052;DHT22;22964;52.272;13.356;2022-11-15T11:46:00;18.30;69.50
37052;DHT22;22964;52.272;13.356;2022-11-15T11:48:57;18.50;69.00
37052;DHT22;22964;52.272;13.356;2022-11-15T11:51:34;18.60;68.10
37052;DHT22;22964;52.272;13.356;2022-11-15T11:54:25;18.80;69.20
37052;DHT22;22964;52.272;13.356;2022-11-15T11:56:53;18.80;67.50
37052;DHT22;22964;52.272;13.356;2022-11-15T12:01:55;19.10;67.40
37052;DHT22;22964;52.272;13.356;2022-11-15T12:04:30;19.10;68.30
37052;DHT22;22964;52.272;13.356;2022-11-15T12:15:15;19.50;64.90
37052;DHT22;22964;52.272;13.356;2022-11-15T12:17:42;19.60;64.80
37052;DHT22;22964;52.272;13.356;2022-11-15T12:20:20;19.70;66.20
37052;DHT22;22964;52.272;13.356;2022-11-15T12:22:57;19.80;63.70
37052;DHT22;22964;52.272;13.356;2022-11-15T12:31:23;19.90;62.80
37052;DHT22;22964;52.272;13.356;2022-11-15T12:33:55;19.90;62.80
37052;DHT22;22964;52.272;13.356;2022-11-15T12:39:02;19.90;64.20
37052;DHT22;22964;52.272;13.356;2022-11-15T12:41:36;19.90;62.30
37052;DHT22;22964;52.272;13.356;2022-11-15T12:44:02;19.90;63.50
37052;DHT22;22964;52.272;13.356;2022-11-15T13:17:55;20.00;61.30
37052;DHT22;22964;52.272;13.356;2022-11-15T13:20:23;20.00;60.80
37052;DHT22;22964;52.272;13.356;2022-11-15T13:23:08;20.00;62.90
37052;DHT22;22964;52.272;13.356;2022-11-15T13:26:08;20.00;62.70
37052;DHT22;22964;52.272;13.356;2022-11-15T13:28:41;19.90;62.30
37052;DHT22;22964;52.272;13.356;2022-11-15T13:36:46;19.80;62.40
37052;DHT22;22964;52.272;13.356;2022-11-15T13:39:23;19.80;63.40
37052;DHT22;22964;52.272;13.356;2022-11-15T13:41:51;19.80;63.10
37052;DHT22;22964;52.272;13.356;2022-11-15T13:44:23;19.70;63.30
37052;DHT22;22964;52.272;13.356;2022-11-15T13:49:30;19.60;63.30
37052;DHT22;22964;52.272;13.356;2022-11-15T13:51:56;19.60;63.80
37052;DHT22;22964;52.272;13.356;2022-11-15T14:00:04;19.50;62.70
37052;DHT22;22964;52.272;13.356;2022-11-15T14:02:40;19.50;63.90
37052;DHT22;22964;52.272;13.356;2022-11-15T14:05:16;19.40;63.60
37052;DHT22;22964;52.272;13.356;2022-11-15T14:08:12;19.30;62.90
37052;DHT22;22964;52.272;13.356;2022-11-15T14:10:46;19.20;62.90
37052;DHT22;22964;52.272;13.356;2022-11-15T14:13:29;19.20;63.50
37052;DHT22;22964;52.272;13.356;2022-11-15T14:18:52;18.90;62.50
37052;DHT22;22964;52.272;13.356;2022-11-15T14:21:19;18.80;62.90
37052;DHT22;22964;52.272;13.356;2022-11-15T14:23:46;18.60;63.00
37052;DHT22;22964;52.272;13.356;2022-11-15T14:26:33;18.50;63.00
37052;DHT22;22964;52.272;13.356;2022-11-15T14:31:49;18.20;63.20
37052;DHT22;22964;52.272;13.356;2022-11-15T14:34:15;18.00;63.60
37052;DHT22;22964;52.272;13.356;2022-11-15T14:36:40;17.90;63.70
37052;DHT22;22964;52.272;13.356;2022-11-15T14:39:06;17.70;63.90
37052;DHT22;22964;52.272;13.356;2022-11-15T14:41:35;17.60;64.20
37052;DHT22;22964;52.272;13.356;2022-11-15T14:44:04;17.50;65.00
37052;DHT22;22964;52.272;13.356;2022-11-15T14:46:30;17.40;64.50
37052;DHT22;22964;52.272;13.356;2022-11-15T14:48:56;17.30;65.50
37052;DHT22;22964;52.272;13.356;2022-11-15T14:51:22;17.20;64.90
37052;DHT22;22964;52.272;13.356;2022-11-15T14:53:48;17.10;65.00
37052;DHT22;22964;52.272;13.356;2022-11-15T14:56:15;17.00;64.90
37052;DHT22;22964;52.272;13.356;2022-11-15T14:58:42;17.00;65.00
37052;DHT22;22964;52.272;13.356;2022-11-15T15:01:23;16.90;65.10
37052;DHT22;22964;52.272;13.356;2022-11-15T15:03:49;16.80;64.50
37052;DHT22;22964;52.272;13.356;2022-11-15T15:06:18;16.70;65.40
37052;DHT22;22964;52.272;13.356;2022-11-15T15:08:44;16.60;65.40
37052;DHT22;22964;52.272;13.356;2022-11-15T15:11:16;16.50;64.80
37052;DHT22;22964;52.272;13.356;2022-11-15T15:13:42;16.40;65.00
37052;DHT22;22964;52.272;13.356;2022-11-15T15:16:08;16.30;65.40
37052;DHT22;22964;52.272;13.356;2022-11-15T15:18:34;16.20;65.70
37052;DHT22;22964;52.272;13.356;2022-11-15T15:21:00;16.10;65.90
37052;DHT22;22964;52.272;13.356;2022-11-15T15:23:28;16.10;65.90
37052;DHT22;22964;52.272;13.356;2022-11-15T15:25:56;16.00;65.70
37052;DHT22;22964;52.272;13.356;2022-11-15T15:28:22;15.90;66.50
37052;DHT22;22964;52.272;13.356;2022-11-15T15:30:48;15.80;65.50
37052;DHT22;22964;52.272;13.356;2022-11-15T15:33:15;15.70;65.10
37052;DHT22;22964;52.272;13.356;2022-11-15T15:35:41;15.60;65.10
37052;DHT22;22964;52.272;13.356;2022-11-15T15:38:12;15.50;65.60
37052;DHT22;22964;52.272;13.356;2022-11-15T15:40:38;15.40;66.10
37052;DHT22;22964;52.272;13.356;2022-11-15T15:43:04;15.30;66.40
37052;DHT22;22964;52.272;13.356;2022-11-15T15:45:29;15.20;66.70
37052;DHT22;22964;52.272;13.356;2022-11-15T15:47:56;15.10;67.00
37052;DHT22;22964;52.272;13.356;2022-11-15T15:50:25;15.10;68.10
37052;DHT22;22964;52.272;13.356;2022-11-15T15:52:53;15.00;67.40
37052;DHT22;22964;52.272;13.356;2022-11-15T15:55:19;14.90;67.50
37052;DHT22;22964;52.272;13.356;2022-11-15T15:57:45;14.90;67.70
37052;DHT22;22964;52.272;13.356;2022-11-15T16:00:12;14.80;68.80
37052;DHT22;22964;52.272;13.356;2022-11-15T16:02:38;14.80;68.30
37052;DHT22;22964;52.272;13.356;2022-11-15T16:05:05;14.70;68.60
37052;DHT22;22964;52.272;13.356;2022-11-15T16:07:31;14.70;68.80
37052;DHT22;22964;52.272;13.356;2022-11-15T16:09:57;14.60;68.80
37052;DHT22;22964;52.272;13.356;2022-11-15T16:12:33;14.50;69.00
37052;DHT22;22964;52.272;13.356;2022-11-15T16:15:00;14.40;69.20
37052;DHT22;22964;52.272;13.356;2022-11-15T16:17:30;14.40;69.30
37052;DHT22;22964;52.272;13.356;2022-11-15T16:19:56;14.40;69.50
37052;DHT22;22964;52.272;13.356;2022-11-15T16:22:22;14.30;69.40
37052;DHT22;22964;52.272;13.356;2022-11-15T16:24:47;14.30;69.50
37052;DHT22;22964;52.272;13.356;2022-11-15T16:27:19;14.20;69.50
37052;DHT22;22964;52.272;13.356;2022-11-15T16:29:46;14.20;69.60
37052;DHT22;22964;52.272;13.356;2022-11-15T16:32:12;14.20;69.80
37052;DHT22;22964;52.272;13.356;2022-11-15T16:34:38;14.10;69.20
37052;DHT22;22964;52.272;13.356;2022-11-15T16:37:04;14.10;69.30
37052;DHT22;22964;52.272;13.356;2022-11-15T16:39:30;13.90;69.60
37052;DHT22;22964;52.272;13.356;2022-11-15T16:41:59;13.90;69.90
37052;DHT22;22964;52.272;13.356;2022-11-15T16:44:25;13.80;70.30
37052;DHT22;22964;52.272;13.356;2022-11-15T16:46:52;13.80;70.40
37052;DHT22;22964;52.272;13.356;2022-11-15T16:49:19;13.70;70.50
37052;DHT22;22964;52.272;13.356;2022-11-15T16:51:46;13.60;71.70
37052;DHT22;22964;52.272;13.356;2022-11-15T16:54:13;13.50;71.10
37052;DHT22;22964;52.272;13.356;2022-11-15T16:56:39;13.50;71.20
37052;DHT22;22964;52.272;13.356;2022-11-15T16:59:05;13.40;71.60
37052;DHT22;22964;52.272;13.356;2022-11-15T17:01:34;13.30;72.00
37052;DHT22;22964;52.272;13.356;2022-11-15T17:04:03;13.30;72.40
37052;DHT22;22964;52.272;13.356;2022-11-15T17:06:41;13.20;72.70
37052;DHT22;22964;52.272;13.356;2022-11-15T17:09:18;13.20;73.40
37052;DHT22;22964;52.272;13.356;2022-11-15T17:11:44;13.10;73.90
37052;DHT22;22964;52.272;13.356;2022-11-15T17:14:10;13.10;74.20
37052;DHT22;22964;52.272;13.356;2022-11-15T17:16:37;13.00;74.90
37052;DHT22;22964;52.272;13.356;2022-11-15T17:19:11;13.00;76.40
37052;DHT22;22964;52.272;13.356;2022-11-15T17:21:38;13.00;76.20
37052;DHT22;22964;52.272;13.356;2022-11-15T17:24:03;13.00;76.40
37052;DHT22;22964;52.272;13.356;2022-11-15T17:26:29;12.90;76.70
37052;DHT22;22964;52.272;13.356;2022-11-15T17:28:55;12.90;77.00
37052;DHT22;22964;52.272;13.356;2022-11-15T17:31:22;12.90;78.00
37052;DHT22;22964;52.272;13.356;2022-11-15T17:33:47;12.90;78.20
37052;DHT22;22964;52.272;13.356;2022-11-15T17:36:13;12.90;77.40
37052;DHT22;22964;52.272;13.356;2022-11-15T17:38:42;12.90;77.50
37052;DHT22;22964;52.272;13.356;2022-11-15T17:41:15;12.90;77.90
37052;DHT22;22964;52.272;13.356;2022-11-15T17:43:41;12.90;78.20
37052;DHT22;22964;52.272;13.356;2022-11-15T17:46:11;12.90;78.40
37052;DHT22;22964;52.272;13.356;2022-11-15T17:48:37;12.90;78.50
37052;DHT22;22964;52.272;13.356;2022-11-15T17:51:06;12.90;78.60
37052;DHT22;22964;52.272;13.356;2022-11-15T17:53:34;12.90;78.60
37052;DHT22;22964;52.272;13.356;2022-11-15T17:56:01;12.80;78.70
37052;DHT22;22964;52.272;13.356;2022-11-15T17:58:28;12.90;78.70
37052;DHT22;22964;52.272;13.356;2022-11-15T18:00:54;12.80;78.30
37052;DHT22;22964;52.272;13.356;2022-11-15T18:03:20;12.80;78.10
37052;DHT22;22964;52.272;13.356;2022-11-15T18:05:45;12.80;77.80
37052;DHT22;22964;52.272;13.356;2022-11-15T18:08:11;12.80;77.70
37052;DHT22;22964;52.272;13.356;2022-11-15T18:10:41;12.80;77.70
37052;DHT22;22964;52.272;13.356;2022-11-15T18:13:07;12.80;77.50
37052;DHT22;22964;52.272;13.356;2022-11-15T18:15:34;12.80;77.70
37052;DHT22;22964;52.272;13.356;2022-11-15T18:18:00;12.70;78.10
37052;DHT22;22964;52.272;13.356;2022-11-15T18:20:26;12.70;78.60
37052;DHT22;22964;52.272;13.356;2022-11-15T18:22:52;12.60;78.70
37052;DHT22;22964;52.272;13.356;2022-11-15T18:25:19;12.60;78.90
37052;DHT22;22964;52.272;13.356;2022-11-15T18:27:44;12.50;79.10
37052;DHT22;22964;52.272;13.356;2022-11-15T18:30:11;12.50;79.20
37052;DHT22;22964;52.272;13.356;2022-11-15T18:32:36;12.40;79.10
37052;DHT22;22964;52.272;13.356;2022-11-15T18:35:02;12.40;79.00
37052;DHT22;22964;52.272;13.356;2022-11-15T18:37:28;12.40;78.90
37052;DHT22;22964;52.272;13.356;2022-11-15T18:39:54;12.40;79.00
37052;DHT22;22964;52.272;13.356;2022-11-15T18:42:20;12.30;79.50
37052;DHT22;22964;52.272;13.356;2022-11-15T18:44:45;12.30;77.90
37052;DHT22;22964;52.272;13.356;2022-11-15T18:47:11;12.30;78.30
37052;DHT22;22964;52.272;13.356;2022-11-15T18:49:37;12.20;77.50
37052;DHT22;22964;52.272;13.356;2022-11-15T18:52:02;12.10;77.90
37052;DHT22;22964;52.272;13.356;2022-11-15T18:54:28;12.10;78.30
37052;DHT22;22964;52.272;13.356;2022-11-15T18:56:54;12.00;78.60
37052;DHT22;22964;52.272;13.356;2022-11-15T18:59:19;12.00;78.70
37052;DHT22;22964;52.272;13.356;2022-11-15T19:01:45;11.90;78.70
37052;DHT22;22964;52.272;13.356;2022-11-15T19:04:17;11.90;78.90